createdAt,value
2018-09-19T00:00:45.257Z,11.40
2018-09-19T00:01:45.234Z,14.30
2018-09-19T00:02:45.210Z,11.20
2018-09-19T00:03:45.189Z,11.10
2018-09-19T00:04:45.166Z,12.10
2018-09-19T00:05:45.148Z,12.40
2018-09-19T00:06:45.124Z,12.80
2018-09-19T00:07:45.103Z,12.90
2018-09-19T00:08:45.085Z,14.10
2018-09-19T00:09:45.062Z,9.30
2018-09-19T00:10:45.037Z,12.40
2018-09-19T00:11:45.015Z,12.50
2018-09-19T00:12:44.994Z,12.90
2018-09-19T00:13:44.975Z,10.10
2018-09-19T00:14:44.954Z,11.80
2018-09-19T00:15:44.929Z,10.60
2018-09-19T00:16:44.908Z,13.30
2018-09-19T00:17:44.885Z,14.30
2018-09-19T00:18:44.864Z,10.70
2018-09-19T00:19:44.844Z,14.30
2018-09-19T00:20:44.822Z,13.90
2018-09-19T00:21:44.800Z,10.70
2018-09-19T00:22:44.776Z,10.30
2018-09-19T00:23:44.755Z,15.20
2018-09-19T00:24:44.812Z,9.70
2018-09-19T00:25:44.711Z,12.00
2018-09-19T00:26:44.690Z,14.10
2018-09-19T00:27:44.669Z,14.40
2018-09-19T00:28:44.646Z,12.10
2018-09-19T00:29:44.624Z,16.80
2018-09-19T00:30:44.604Z,11.20
2018-09-19T00:31:44.581Z,12.60
2018-09-19T00:32:44.559Z,13.10
2018-09-19T00:33:44.538Z,13.90
2018-09-19T00:34:44.515Z,13.30
2018-09-19T00:35:44.494Z,11.10
2018-09-19T00:36:44.475Z,13.20
2018-09-19T00:37:44.448Z,12.70
2018-09-19T00:38:44.427Z,10.80
2018-09-19T00:39:44.405Z,11.90
2018-09-19T00:40:44.384Z,11.50
2018-09-19T00:41:44.360Z,9.80
2018-09-19T00:42:44.343Z,16.40
2018-09-19T00:43:44.318Z,16.60
2018-09-19T00:44:44.295Z,14.60
2018-09-19T00:45:44.271Z,11.40
2018-09-19T00:46:44.250Z,13.60
2018-09-19T00:47:44.229Z,11.60
2018-09-19T00:48:44.214Z,14.80
2018-09-19T00:49:44.184Z,12.70
2018-09-19T00:50:44.162Z,12.00
2018-09-19T00:51:44.143Z,11.00
2018-09-19T00:52:44.122Z,13.20
2018-09-19T00:53:44.095Z,12.10
2018-09-19T00:54:44.074Z,12.80
2018-09-19T00:55:44.065Z,17.30
2018-09-19T00:56:44.038Z,12.60
2018-09-19T00:57:44.008Z,12.90
2018-09-19T00:58:43.997Z,11.30
2018-09-19T00:59:43.965Z,14.30
2018-09-19T01:00:43.940Z,14.60
2018-09-19T01:01:43.921Z,15.40
2018-09-19T01:02:43.896Z,10.70
2018-09-19T01:03:43.874Z,13.50
2018-09-19T01:04:43.851Z,15.90
2018-09-19T01:05:43.829Z,16.50
2018-09-19T01:06:43.805Z,16.00
2018-09-19T01:07:43.790Z,17.60
2018-09-19T01:08:43.769Z,12.30
2018-09-19T01:09:43.744Z,12.70
2018-09-19T01:10:43.718Z,12.90
2018-09-19T01:11:43.696Z,13.30
2018-09-19T01:12:43.672Z,16.90
2018-09-19T01:13:43.652Z,11.00
2018-09-19T01:14:43.627Z,12.60
2018-09-19T01:15:43.607Z,12.40
2018-09-19T01:16:43.586Z,14.50
2018-09-19T01:17:43.561Z,14.30
2018-09-19T01:18:43.538Z,14.60
2018-09-19T01:19:43.517Z,14.40
2018-09-19T01:20:43.494Z,16.30
2018-09-19T01:21:43.478Z,15.20
2018-09-19T01:22:43.460Z,14.70
2018-09-19T01:23:43.430Z,12.80
2018-09-19T01:24:43.447Z,11.90
2018-09-19T01:25:43.383Z,14.40
2018-09-19T01:26:43.361Z,14.60
2018-09-19T01:27:43.344Z,12.60
2018-09-19T01:28:43.314Z,14.00
2018-09-19T01:29:43.294Z,14.90
2018-09-19T01:30:43.271Z,13.30
2018-09-19T01:31:43.249Z,14.40
2018-09-19T01:32:43.226Z,15.40
2018-09-19T01:33:43.204Z,13.00
2018-09-19T01:34:43.180Z,13.80
2018-09-19T01:35:43.159Z,13.20
2018-09-19T01:36:43.136Z,15.20
2018-09-19T01:37:43.115Z,16.40
2018-09-19T01:38:43.091Z,13.50
2018-09-19T01:39:43.068Z,14.80
2018-09-19T01:40:43.045Z,14.80
2018-09-19T01:41:43.024Z,15.00
2018-09-19T01:42:43.002Z,13.20
2018-09-19T01:43:42.978Z,15.70
2018-09-19T01:44:42.957Z,13.40
2018-09-19T01:45:42.935Z,15.90
2018-09-19T01:46:42.910Z,13.70
2018-09-19T01:47:42.888Z,16.20
2018-09-19T01:48:42.863Z,15.40
2018-09-19T01:49:42.843Z,13.20
2018-09-19T01:50:42.831Z,13.80
2018-09-19T01:51:42.803Z,16.10
2018-09-19T01:52:42.777Z,14.00
2018-09-19T01:53:42.758Z,14.30
2018-09-19T01:54:42.728Z,11.50
2018-09-19T01:55:42.706Z,12.10
2018-09-19T01:56:42.685Z,13.40
2018-09-19T01:57:42.660Z,16.60
2018-09-19T01:58:42.642Z,14.30
2018-09-19T01:59:42.618Z,13.90
2018-09-19T02:00:42.593Z,15.00
2018-09-19T02:01:42.574Z,17.10
2018-09-19T02:02:42.601Z,12.40
2018-09-19T02:03:42.526Z,15.10
2018-09-19T02:04:42.502Z,12.80
2018-09-19T02:05:42.479Z,12.40
2018-09-19T02:06:42.461Z,16.30
2018-09-19T02:07:42.434Z,13.80
2018-09-19T02:08:42.410Z,13.60
2018-09-19T02:09:42.387Z,19.40
2018-09-19T02:10:42.368Z,13.70
2018-09-19T02:11:42.343Z,16.40
2018-09-19T02:12:42.318Z,15.60
2018-09-19T02:13:42.297Z,15.50
2018-09-19T02:14:42.289Z,16.60
2018-09-19T02:15:42.256Z,16.60
2018-09-19T02:16:42.227Z,14.90
2018-09-19T02:17:42.214Z,14.10
2018-09-19T02:18:42.183Z,13.50
2018-09-19T02:19:42.159Z,15.70
2018-09-19T02:20:42.137Z,15.70
2018-09-19T02:21:42.116Z,16.70
2018-09-19T02:22:42.093Z,16.70
2018-09-19T02:23:42.071Z,14.30
2018-09-19T02:24:42.045Z,16.90
2018-09-19T02:25:42.022Z,19.30
2018-09-19T02:26:41.998Z,17.00
2018-09-19T02:27:41.977Z,15.10
2018-09-19T02:28:42.097Z,16.20
2018-09-19T02:29:41.930Z,16.00
2018-09-19T02:30:41.912Z,16.50
2018-09-19T02:31:41.887Z,18.70
2018-09-19T02:32:41.860Z,15.70
2018-09-19T02:33:41.837Z,18.30
2018-09-19T02:34:41.876Z,16.30
2018-09-19T02:35:41.793Z,14.10
2018-09-19T02:36:41.769Z,16.50
2018-09-19T02:37:41.747Z,18.40
2018-09-19T02:38:41.722Z,17.20
2018-09-19T02:39:41.701Z,19.20
2018-09-19T02:40:41.675Z,13.50
2018-09-19T02:41:41.655Z,13.00
2018-09-19T02:42:41.630Z,14.90
2018-09-19T02:43:41.608Z,16.20
2018-09-19T02:44:41.622Z,18.50
2018-09-19T02:45:41.560Z,15.20
2018-09-19T02:46:41.536Z,16.20
2018-09-19T02:47:41.516Z,17.10
2018-09-19T02:48:41.491Z,18.40
2018-09-19T02:49:41.468Z,13.30
2018-09-19T02:50:41.444Z,14.70
2018-09-19T02:51:41.424Z,16.70
2018-09-19T02:52:41.397Z,16.80
2018-09-19T02:53:41.374Z,18.40
2018-09-19T02:54:41.350Z,16.90
2018-09-19T02:55:41.328Z,15.40
2018-09-19T02:56:41.303Z,18.30
2018-09-19T02:57:41.282Z,16.50
2018-09-19T02:58:41.257Z,16.40
2018-09-19T02:59:41.234Z,15.80
2018-09-19T03:00:41.213Z,15.70
2018-09-19T03:01:41.187Z,21.10
2018-09-19T03:02:41.164Z,16.20
2018-09-19T03:03:41.140Z,20.40
2018-09-19T03:05:41.093Z,16.70
2018-09-19T03:06:41.069Z,15.60
2018-09-19T03:07:41.051Z,17.30
2018-09-19T03:08:41.029Z,18.00
2018-09-19T03:09:40.999Z,15.90
2018-09-19T03:10:40.980Z,18.90
2018-09-19T03:11:40.954Z,16.70
2018-09-19T03:12:40.927Z,18.80
2018-09-19T03:13:40.905Z,15.40
2018-09-19T03:14:40.881Z,15.90
2018-09-19T03:15:40.860Z,17.60
2018-09-19T03:16:40.841Z,17.10
2018-09-19T03:17:40.937Z,17.40
2018-09-19T03:18:40.790Z,17.30
2018-09-19T03:19:40.765Z,18.30
2018-09-19T03:20:40.742Z,17.80
2018-09-19T03:21:40.718Z,16.90
2018-09-19T03:22:40.693Z,17.10
2018-09-19T03:23:40.669Z,17.10
2018-09-19T03:24:40.650Z,18.20
2018-09-19T03:25:40.621Z,17.10
2018-09-19T03:26:40.597Z,16.60
2018-09-19T03:27:40.575Z,17.40
2018-09-19T03:28:40.551Z,18.50
2018-09-19T03:29:40.526Z,17.30
2018-09-19T03:30:40.504Z,18.80
2018-09-19T03:31:40.481Z,17.00
2018-09-19T03:32:40.456Z,20.20
2018-09-19T03:33:40.433Z,17.00
2018-09-19T03:34:40.407Z,15.10
2018-09-19T03:35:40.383Z,16.70
2018-09-19T03:36:40.360Z,14.60
2018-09-19T03:37:40.335Z,18.10
2018-09-19T03:38:40.312Z,19.50
2018-09-19T03:39:40.291Z,14.40
2018-09-19T03:40:40.264Z,17.60
2018-09-19T03:41:40.241Z,15.20
2018-09-19T03:42:40.221Z,17.20
2018-09-19T03:43:40.199Z,22.80
2018-09-19T03:44:40.168Z,18.50
2018-09-19T03:45:40.146Z,16.70
2018-09-19T03:46:40.123Z,21.70
2018-09-19T03:47:40.100Z,18.00
2018-09-19T03:48:40.078Z,20.50
2018-09-19T03:49:40.052Z,21.40
2018-09-19T03:50:40.028Z,17.10
2018-09-19T03:51:40.003Z,19.00
2018-09-19T03:52:40.036Z,18.90
2018-09-19T03:53:39.952Z,18.60
2018-09-19T03:54:39.933Z,16.20
2018-09-19T03:55:39.947Z,17.00
2018-09-19T03:56:39.883Z,23.70
2018-09-19T03:57:39.858Z,19.30
2018-09-19T03:58:39.836Z,17.90
2018-09-19T03:59:39.809Z,18.70
2018-09-19T04:00:39.785Z,18.50
2018-09-19T04:01:39.765Z,19.60
2018-09-19T04:02:39.737Z,21.50
2018-09-19T04:03:39.714Z,16.50
2018-09-19T04:04:39.688Z,19.20
2018-09-19T04:05:39.665Z,16.10
2018-09-19T04:06:39.643Z,15.90
2018-09-19T04:07:39.617Z,21.70
2018-09-19T04:08:39.595Z,19.70
2018-09-19T04:09:39.569Z,17.60
2018-09-19T04:10:39.544Z,18.10
2018-09-19T04:11:39.533Z,17.40
2018-09-19T04:12:39.504Z,19.00
2018-09-19T04:13:39.471Z,18.90
2018-09-19T04:14:39.455Z,19.60
2018-09-19T04:15:39.424Z,17.20
2018-09-19T04:16:39.444Z,18.90
2018-09-19T04:17:39.451Z,19.90
2018-09-19T04:18:39.353Z,20.60
2018-09-19T04:19:39.327Z,21.00
2018-09-19T04:20:39.303Z,21.20
2018-09-19T04:21:39.277Z,18.10
2018-09-19T04:22:39.254Z,18.20
2018-09-19T04:23:39.234Z,20.00
2018-09-19T04:24:39.208Z,18.40
2018-09-19T04:25:39.180Z,24.70
2018-09-19T04:26:39.159Z,22.00
2018-09-19T04:27:39.132Z,20.90
2018-09-19T04:28:39.158Z,23.30
2018-09-19T04:29:39.090Z,22.60
2018-09-19T04:30:39.064Z,21.00
2018-09-19T04:31:39.036Z,21.70
2018-09-19T04:32:39.009Z,24.30
2018-09-19T04:33:38.987Z,20.10
2018-09-19T04:34:38.963Z,17.90
2018-09-19T04:35:38.938Z,21.40
2018-09-19T04:36:38.912Z,24.40
2018-09-19T04:37:38.890Z,20.90
2018-09-19T04:38:38.866Z,20.10
2018-09-19T04:39:38.842Z,17.50
2018-09-19T04:40:38.819Z,19.40
2018-09-19T04:41:38.794Z,22.00
2018-09-19T04:42:38.767Z,20.00
2018-09-19T04:43:38.744Z,24.00
2018-09-19T04:44:38.720Z,22.10
2018-09-19T04:45:38.697Z,22.20
2018-09-19T04:46:38.681Z,18.30
2018-09-19T04:47:38.647Z,24.70
2018-09-19T04:48:38.627Z,20.90
2018-09-19T04:49:38.601Z,21.10
2018-09-19T04:50:38.575Z,28.00
2018-09-19T04:51:38.664Z,21.60
2018-09-19T04:52:38.532Z,24.50
2018-09-19T04:53:38.503Z,19.60
2018-09-19T04:54:38.477Z,20.00
2018-09-19T04:55:38.454Z,25.80
2018-09-19T04:56:38.433Z,23.90
2018-09-19T04:57:38.404Z,19.50
2018-09-19T04:58:38.381Z,25.60
2018-09-19T04:59:38.361Z,20.00
2018-09-19T05:00:38.332Z,19.60
2018-09-19T05:01:38.308Z,22.90
2018-09-19T05:02:38.285Z,21.50
2018-09-19T05:03:38.263Z,25.40
2018-09-19T05:04:38.235Z,21.30
2018-09-19T05:05:38.231Z,27.60
2018-09-19T05:06:38.191Z,26.40
2018-09-19T05:07:38.165Z,25.30
2018-09-19T05:08:38.138Z,24.80
2018-09-19T05:09:38.364Z,22.90
2018-09-19T05:10:38.090Z,24.70
2018-09-19T05:11:38.067Z,23.10
2018-09-19T05:12:38.041Z,26.70
2018-09-19T05:13:38.017Z,26.90
2018-09-19T05:14:37.993Z,26.70
2018-09-19T05:15:37.969Z,25.30
2018-09-19T05:16:37.949Z,25.90
2018-09-19T05:17:37.924Z,27.30
2018-09-19T05:18:37.895Z,30.50
2018-09-19T05:19:37.871Z,31.90
2018-09-19T05:20:37.846Z,30.40
2018-09-19T05:21:37.822Z,30.30
2018-09-19T05:22:37.798Z,33.40
2018-09-19T05:23:37.775Z,26.10
2018-09-19T05:24:37.754Z,30.40
2018-09-19T05:25:37.725Z,29.10
2018-09-19T05:26:37.706Z,28.30
2018-09-19T05:27:37.680Z,27.50
2018-09-19T05:28:37.654Z,21.80
2018-09-19T05:29:37.655Z,28.10
2018-09-19T05:30:37.606Z,20.60
2018-09-19T05:31:37.602Z,26.10
2018-09-19T05:32:37.559Z,26.40
2018-09-19T05:33:37.534Z,25.20
2018-09-19T05:34:37.510Z,21.50
2018-09-19T05:35:37.486Z,22.00
2018-09-19T05:36:37.461Z,22.10
2018-09-19T05:37:37.441Z,19.50
2018-09-19T05:38:37.414Z,24.00
2018-09-19T05:39:37.390Z,18.80
2018-09-19T05:40:37.369Z,24.20
2018-09-19T05:41:37.343Z,22.50
2018-09-19T05:42:37.323Z,20.60
2018-09-19T05:43:37.293Z,23.20
2018-09-19T05:44:37.269Z,26.70
2018-09-19T05:45:37.245Z,23.00
2018-09-19T05:46:37.345Z,23.30
2018-09-19T05:47:37.199Z,19.50
2018-09-19T05:48:37.174Z,20.20
2018-09-19T05:49:37.149Z,24.20
2018-09-19T05:50:37.128Z,24.30
2018-09-19T05:51:37.104Z,24.70
2018-09-19T05:52:37.077Z,24.70
2018-09-19T05:53:37.053Z,26.40
2018-09-19T05:54:37.100Z,21.50
2018-09-19T05:55:37.009Z,23.70
2018-09-19T05:56:36.982Z,21.90
2018-09-19T05:57:36.961Z,20.50
2018-09-19T05:58:36.936Z,22.30
2018-09-19T05:59:36.911Z,18.40
2018-09-19T06:00:36.887Z,20.20
2018-09-19T06:01:36.864Z,18.80
2018-09-19T06:02:36.843Z,20.90
2018-09-19T06:03:36.821Z,20.50
2018-09-19T06:04:36.794Z,19.70
2018-09-19T06:05:36.769Z,19.30
2018-09-19T06:06:36.750Z,19.40
2018-09-19T06:07:36.723Z,20.00
2018-09-19T06:08:36.758Z,18.20
2018-09-19T06:09:36.676Z,19.80
2018-09-19T06:10:36.655Z,18.60
2018-09-19T06:11:36.631Z,14.90
2018-09-19T06:12:36.609Z,20.40
2018-09-19T06:13:36.588Z,20.50
2018-09-19T06:14:36.580Z,16.50
2018-09-19T06:15:36.619Z,20.60
2018-09-19T06:16:36.523Z,18.40
2018-09-19T06:17:36.500Z,19.00
2018-09-19T06:18:36.479Z,16.50
2018-09-19T06:19:36.459Z,14.90
2018-09-19T06:20:36.483Z,19.20
2018-09-19T06:21:36.417Z,17.20
2018-09-19T06:22:36.397Z,17.40
2018-09-19T06:23:36.377Z,14.80
2018-09-19T06:24:36.358Z,15.20
2018-09-19T06:25:36.337Z,18.20
2018-09-19T06:26:36.331Z,14.00
2018-09-19T06:27:36.300Z,16.50
2018-09-19T06:28:36.279Z,17.80
2018-09-19T06:29:36.261Z,19.70
2018-09-19T06:30:36.243Z,19.50
2018-09-19T06:31:36.292Z,17.00
2018-09-19T06:32:36.213Z,19.50
2018-09-19T06:33:36.248Z,16.20
2018-09-19T06:34:36.172Z,14.90
2018-09-19T06:35:36.155Z,15.40
2018-09-19T06:36:36.133Z,16.30
2018-09-19T06:37:36.116Z,16.20
2018-09-19T06:38:36.099Z,19.20
2018-09-19T06:39:36.082Z,16.20
2018-09-19T06:40:36.232Z,16.80
2018-09-19T06:41:36.048Z,19.80
2018-09-19T06:42:36.062Z,17.20
2018-09-19T06:43:36.016Z,20.00
2018-09-19T06:44:35.999Z,19.50
2018-09-19T06:45:36.055Z,17.20
2018-09-19T06:46:35.964Z,16.20
2018-09-19T06:47:36.106Z,23.10
2018-09-19T06:48:35.930Z,17.10
2018-09-19T06:49:35.915Z,17.90
2018-09-19T06:50:35.907Z,16.90
2018-09-19T06:51:35.884Z,17.50
2018-09-19T06:52:35.957Z,21.30
2018-09-19T06:53:35.855Z,20.10
2018-09-19T06:54:35.835Z,18.80
2018-09-19T06:55:35.819Z,21.70
2018-09-19T06:56:35.810Z,19.30
2018-09-19T06:57:35.788Z,20.80
2018-09-19T06:58:35.771Z,19.50
2018-09-19T06:59:35.766Z,19.00
2018-09-19T07:00:35.743Z,20.00
2018-09-19T07:01:35.730Z,18.70
2018-09-19T07:02:35.712Z,17.70
2018-09-19T07:03:35.696Z,17.10
2018-09-19T07:04:35.680Z,19.90
2018-09-19T07:05:35.684Z,16.00
2018-09-19T07:06:35.652Z,18.40
2018-09-19T07:07:35.636Z,18.80
2018-09-19T07:08:35.623Z,17.70
2018-09-19T07:09:35.608Z,21.10
2018-09-19T07:10:35.655Z,16.90
2018-09-19T07:11:35.580Z,18.00
2018-09-19T07:12:35.567Z,19.10
2018-09-19T07:13:35.547Z,17.30
2018-09-19T07:14:35.541Z,19.50
2018-09-19T07:15:35.561Z,21.20
2018-09-19T07:16:35.505Z,18.50
2018-09-19T07:17:35.488Z,20.40
2018-09-19T07:18:35.478Z,17.40
2018-09-19T07:19:35.464Z,16.50
2018-09-19T07:20:35.445Z,18.40
2018-09-19T07:21:35.430Z,18.40
2018-09-19T07:22:35.432Z,16.90
2018-09-19T07:23:35.424Z,19.40
2018-09-19T07:24:35.387Z,18.50
2018-09-19T07:25:35.374Z,24.10
2018-09-19T07:26:35.358Z,18.20
2018-09-19T07:27:35.344Z,24.60
2018-09-19T07:28:35.337Z,19.00
2018-09-19T07:29:35.316Z,22.80
2018-09-19T07:30:35.306Z,15.40
2018-09-19T07:31:35.287Z,19.90
2018-09-19T07:32:35.273Z,19.60
2018-09-19T07:33:35.261Z,15.30
2018-09-19T07:34:35.246Z,19.90
2018-09-19T07:35:35.233Z,17.50
2018-09-19T07:36:35.218Z,15.80
2018-09-19T07:37:35.206Z,18.10
2018-09-19T07:38:35.190Z,15.10
2018-09-19T07:39:35.178Z,18.20
2018-09-19T07:40:35.162Z,18.00
2018-09-19T07:41:35.148Z,13.90
2018-09-19T07:42:35.135Z,19.20
2018-09-19T07:43:35.126Z,19.70
2018-09-19T07:44:35.106Z,17.20
2018-09-19T07:45:35.093Z,14.90
2018-09-19T07:46:35.134Z,19.20
2018-09-19T07:47:35.071Z,13.70
2018-09-19T07:48:35.050Z,16.70
2018-09-19T07:49:35.040Z,16.30
2018-09-19T07:50:35.024Z,18.60
2018-09-19T07:51:35.009Z,16.60
2018-09-19T07:52:34.993Z,18.20
2018-09-19T07:53:34.981Z,17.80
2018-09-19T07:54:35.035Z,14.70
2018-09-19T07:55:34.954Z,16.10
2018-09-19T07:56:34.940Z,13.00
2018-09-19T07:57:34.927Z,20.90
2018-09-19T07:58:34.911Z,16.70
2018-09-19T07:59:34.898Z,17.50
2018-09-19T08:00:34.981Z,15.80
2018-09-19T08:01:34.867Z,17.70
2018-09-19T08:02:34.853Z,17.00
2018-09-19T08:03:34.841Z,16.90
2018-09-19T08:04:34.823Z,14.70
2018-09-19T08:05:34.811Z,14.70
2018-09-19T08:06:34.796Z,14.80
2018-09-19T08:07:34.779Z,16.80
2018-09-19T08:08:34.766Z,17.50
2018-09-19T08:09:34.752Z,13.40
2018-09-19T08:10:34.738Z,14.60
2018-09-19T08:11:34.722Z,13.90
2018-09-19T08:12:34.709Z,14.80
2018-09-19T08:13:34.694Z,17.00
2018-09-19T08:14:34.681Z,15.60
2018-09-19T08:15:34.667Z,14.50
2018-09-19T08:16:34.652Z,14.00
2018-09-19T08:17:34.638Z,14.50
2018-09-19T08:18:34.625Z,14.60
2018-09-19T08:19:34.611Z,14.60
2018-09-19T08:20:34.597Z,17.20
2018-09-19T08:21:34.580Z,15.10
2018-09-19T08:22:34.622Z,12.70
2018-09-19T08:23:34.553Z,13.90
2018-09-19T08:24:34.540Z,13.30
2018-09-19T08:25:34.529Z,13.60
2018-09-19T08:26:34.511Z,13.30
2018-09-19T08:27:34.501Z,15.40
2018-09-19T08:28:34.485Z,11.10
2018-09-19T08:29:34.469Z,12.90
2018-09-19T08:30:34.456Z,13.80
2018-09-19T08:31:34.442Z,11.30
2018-09-19T08:32:34.428Z,12.00
2018-09-19T08:33:34.415Z,18.00
2018-09-19T08:34:34.405Z,12.60
2018-09-19T08:35:34.388Z,15.70
2018-09-19T08:36:34.374Z,11.00
2018-09-19T08:37:34.362Z,12.40
2018-09-19T08:38:34.348Z,16.00
2018-09-19T08:39:34.336Z,14.40
2018-09-19T08:40:34.320Z,11.40
2018-09-19T08:41:34.306Z,15.00
2018-09-19T08:42:34.295Z,15.50
2018-09-19T08:43:34.281Z,11.20
2018-09-19T08:44:34.265Z,13.10
2018-09-19T08:45:34.261Z,10.40
2018-09-19T08:46:34.243Z,11.60
2018-09-19T08:47:34.224Z,10.90
2018-09-19T08:48:34.210Z,11.40
2018-09-19T08:49:34.197Z,10.40
2018-09-19T08:50:34.256Z,11.60
2018-09-19T08:51:34.170Z,12.30
2018-09-19T08:52:34.157Z,12.20
2018-09-19T08:53:34.142Z,13.60
2018-09-19T08:54:34.128Z,9.50
2018-09-19T08:55:34.115Z,11.10
2018-09-19T08:56:34.099Z,13.30
2018-09-19T08:57:34.091Z,11.00
2018-09-19T08:58:34.073Z,17.40
2018-09-19T08:59:34.057Z,13.90
2018-09-19T09:00:34.043Z,12.20
2018-09-19T09:01:34.028Z,11.80
2018-09-19T09:02:34.015Z,12.40
2018-09-19T09:03:34.003Z,13.30
2018-09-19T09:04:33.986Z,14.80
2018-09-19T09:05:34.061Z,14.00
2018-09-19T09:06:33.960Z,13.80
2018-09-19T09:07:33.951Z,11.30
2018-09-19T09:08:33.931Z,11.30
2018-09-19T09:09:33.920Z,11.70
2018-09-19T09:10:33.936Z,13.60
2018-09-19T09:11:33.889Z,10.10
2018-09-19T09:12:33.937Z,16.80
2018-09-19T09:13:33.865Z,14.30
2018-09-19T09:14:33.887Z,14.60
2018-09-19T09:15:33.835Z,14.10
2018-09-19T09:16:33.821Z,10.00
2018-09-19T09:17:33.808Z,11.00
2018-09-19T09:18:33.797Z,9.60
2018-09-19T09:19:33.784Z,12.20
2018-09-19T09:20:33.773Z,13.80
2018-09-19T09:21:33.755Z,11.20
2018-09-19T09:22:33.740Z,11.10
2018-09-19T09:23:33.730Z,10.70
2018-09-19T09:24:33.717Z,10.00
2018-09-19T09:25:33.702Z,12.90
2018-09-19T09:26:33.689Z,15.00
2018-09-19T09:27:33.679Z,11.10
2018-09-19T09:28:33.662Z,10.70
2018-09-19T09:29:33.648Z,11.30
2018-09-19T09:30:33.635Z,10.10
2018-09-19T09:31:33.623Z,10.60
2018-09-19T09:32:33.614Z,14.20
2018-09-19T09:33:33.597Z,10.00
2018-09-19T09:34:33.591Z,10.60
2018-09-19T09:35:33.575Z,10.00
2018-09-19T09:36:33.560Z,10.30
2018-09-19T09:37:33.546Z,11.90
2018-09-19T09:38:33.532Z,12.70
2018-09-19T09:39:33.524Z,10.60
2018-09-19T09:40:33.617Z,12.40
2018-09-19T09:41:33.499Z,13.00
2018-09-19T09:42:33.486Z,10.50
2018-09-19T09:43:33.481Z,11.80
2018-09-19T09:44:33.454Z,9.70
2018-09-19T09:45:33.443Z,8.60
2018-09-19T09:46:33.429Z,9.40
2018-09-19T09:47:33.418Z,8.60
2018-09-19T09:48:33.448Z,7.70
2018-09-19T09:49:33.395Z,9.10
2018-09-19T09:50:33.380Z,9.10
2018-09-19T09:51:33.370Z,9.20
2018-09-19T09:52:33.358Z,6.70
2018-09-19T09:54:33.332Z,9.00
2018-09-19T09:55:33.317Z,11.70
2018-09-19T09:56:33.301Z,9.10
2018-09-19T09:57:33.291Z,7.90
2018-09-19T09:58:33.276Z,9.70
2018-09-19T09:59:33.264Z,7.80
2018-09-19T10:00:33.265Z,7.90
2018-09-19T10:01:33.241Z,7.70
2018-09-19T10:02:33.227Z,10.20
2018-09-19T10:03:33.215Z,6.10
2018-09-19T10:04:33.198Z,6.80
2018-09-19T10:05:33.187Z,9.50
2018-09-19T10:06:33.202Z,8.50
2018-09-19T10:07:33.163Z,7.20
2018-09-19T10:08:33.148Z,7.30
2018-09-19T10:09:33.137Z,7.70
2018-09-19T10:10:33.124Z,7.80
2018-09-19T10:11:33.110Z,8.20
2018-09-19T10:12:33.096Z,8.60
2018-09-19T10:13:33.093Z,6.40
2018-09-19T10:14:33.471Z,8.10
2018-09-19T10:15:33.058Z,8.30
2018-09-19T10:16:33.045Z,8.80
2018-09-19T10:17:33.033Z,8.00
2018-09-19T10:18:33.018Z,6.20
2018-09-19T10:19:33.008Z,9.70
2018-09-19T10:20:32.992Z,9.70
2018-09-19T10:21:32.981Z,8.80
2018-09-19T10:22:32.996Z,12.20
2018-09-19T10:23:32.953Z,8.40
2018-09-19T10:24:32.940Z,8.20
2018-09-19T10:25:32.930Z,7.00
2018-09-19T10:26:32.917Z,8.80
2018-09-19T10:27:32.901Z,7.20
2018-09-19T10:28:32.887Z,7.60
2018-09-19T10:29:32.924Z,6.50
2018-09-19T10:30:32.868Z,9.20
2018-09-19T10:31:32.852Z,8.30
2018-09-19T10:32:32.837Z,7.70
2018-09-19T10:33:32.824Z,10.00
2018-09-19T10:34:32.812Z,5.40
2018-09-19T10:35:32.847Z,6.80
2018-09-19T10:36:32.786Z,8.20
2018-09-19T10:37:32.775Z,9.50
2018-09-19T10:38:32.762Z,7.40
2018-09-19T10:39:32.750Z,6.70
2018-09-19T10:40:32.736Z,4.80
2018-09-19T10:41:32.726Z,6.80
2018-09-19T10:42:32.721Z,7.70
2018-09-19T10:43:32.700Z,10.00
2018-09-19T10:44:32.687Z,8.80
2018-09-19T10:45:32.674Z,7.20
2018-09-19T10:46:32.660Z,9.30
2018-09-19T10:47:32.649Z,6.80
2018-09-19T10:48:32.636Z,6.90
2018-09-19T10:49:32.682Z,6.10
2018-09-19T10:50:32.612Z,8.60
2018-09-19T10:51:32.601Z,7.00
2018-09-19T10:52:32.586Z,8.00
2018-09-19T10:53:32.574Z,8.00
2018-09-19T10:54:32.562Z,8.40
2018-09-19T10:55:32.549Z,7.00
2018-09-19T10:56:32.536Z,7.00
2018-09-19T10:57:32.522Z,7.70
2018-09-19T10:58:32.512Z,7.60
2018-09-19T10:59:32.499Z,6.90
2018-09-19T11:00:32.490Z,7.80
2018-09-19T11:01:32.474Z,5.60
2018-09-19T11:02:32.461Z,7.60
2018-09-19T11:03:32.447Z,5.60
2018-09-19T11:04:32.435Z,6.50
2018-09-19T11:05:32.422Z,5.00
2018-09-19T11:06:32.409Z,5.70
2018-09-19T11:07:32.399Z,5.40
2018-09-19T11:08:32.382Z,8.20
2018-09-19T11:09:32.371Z,6.20
2018-09-19T11:10:32.359Z,6.50
2018-09-19T11:11:32.349Z,4.20
2018-09-19T11:12:32.333Z,8.20
2018-09-19T11:13:32.321Z,7.00
2018-09-19T11:14:32.308Z,8.70
2018-09-19T11:15:32.296Z,6.60
2018-09-19T11:16:32.287Z,6.50
2018-09-19T11:17:32.270Z,7.90
2018-09-19T11:18:32.257Z,7.20
2018-09-19T11:19:32.245Z,5.50
2018-09-19T11:20:32.232Z,8.20
2018-09-19T11:21:32.219Z,5.50
2018-09-19T11:22:32.207Z,5.80
2018-09-19T11:23:32.195Z,4.90
2018-09-19T11:24:32.182Z,6.30
2018-09-19T11:25:32.168Z,4.60
2018-09-19T11:26:32.210Z,6.30
2018-09-19T11:27:32.141Z,6.60
2018-09-19T11:28:32.131Z,6.70
2018-09-19T11:29:32.116Z,7.10
2018-09-19T11:30:32.103Z,7.40
2018-09-19T11:31:32.091Z,7.20
2018-09-19T11:32:32.078Z,11.40
2018-09-19T11:33:32.101Z,5.50
2018-09-19T11:34:32.048Z,11.00
2018-09-19T11:35:32.036Z,6.20
2018-09-19T11:36:32.021Z,8.90
2018-09-19T11:37:32.008Z,7.50
2018-09-19T11:38:31.997Z,7.60
2018-09-19T11:39:31.982Z,8.30
2018-09-19T11:40:31.969Z,8.30
2018-09-19T11:41:31.956Z,9.00
2018-09-19T11:42:31.941Z,5.90
2018-09-19T11:43:31.933Z,10.70
2018-09-19T11:44:31.917Z,6.90
2018-09-19T11:45:31.903Z,9.00
2018-09-19T11:46:31.889Z,6.70
2018-09-19T11:47:31.875Z,8.20
2018-09-19T11:48:31.911Z,10.80
2018-09-19T11:49:31.849Z,8.70
2018-09-19T11:50:31.837Z,8.20
2018-09-19T11:51:31.823Z,7.70
2018-09-19T11:52:31.810Z,8.70
2018-09-19T11:53:31.796Z,9.20
2018-09-19T11:54:31.782Z,8.90
2018-09-19T11:55:31.770Z,7.70
2018-09-19T11:56:31.756Z,7.70
2018-09-19T11:57:31.743Z,6.90
2018-09-19T11:58:31.729Z,7.10
2018-09-19T11:59:31.717Z,10.60
2018-09-19T12:00:31.702Z,9.70
2018-09-19T12:01:31.689Z,7.20
2018-09-19T12:02:31.675Z,8.90
2018-09-19T12:03:31.662Z,10.10
2018-09-19T12:04:31.650Z,8.70
2018-09-19T12:05:31.636Z,7.40
2018-09-19T12:06:31.622Z,7.90
2018-09-19T12:07:31.615Z,8.60
2018-09-19T12:08:31.595Z,6.80
2018-09-19T12:09:31.583Z,12.70
2018-09-19T12:10:31.570Z,7.40
2018-09-19T12:11:31.558Z,5.60
2018-09-19T12:12:31.546Z,6.20
2018-09-19T12:13:31.529Z,7.20
2018-09-19T12:14:31.518Z,7.80
2018-09-19T12:15:31.505Z,10.40
2018-09-19T12:16:31.491Z,9.40
2018-09-19T12:17:31.479Z,9.50
2018-09-19T12:18:31.464Z,6.30
2018-09-19T12:19:31.462Z,8.30
2018-09-19T12:20:31.439Z,6.40
2018-09-19T12:21:31.460Z,9.70
2018-09-19T12:22:31.413Z,11.00
2018-09-19T12:23:31.406Z,7.70
2018-09-19T12:24:31.386Z,8.60
2018-09-19T12:25:31.373Z,10.80
2018-09-19T12:26:31.416Z,11.70
2018-09-19T12:27:31.346Z,8.70
2018-09-19T12:28:31.334Z,8.40
2018-09-19T12:29:31.320Z,9.80
2018-09-19T12:30:31.307Z,8.30
2018-09-19T12:31:31.294Z,7.00
2018-09-19T12:32:31.281Z,8.20
2018-09-19T12:33:31.268Z,8.30
2018-09-19T12:34:31.254Z,6.50
2018-09-19T12:35:31.243Z,6.70
2018-09-19T12:36:31.231Z,7.20
2018-09-19T12:37:31.216Z,8.30
2018-09-19T12:38:31.203Z,9.80
2018-09-19T12:39:31.205Z,11.40
2018-09-19T12:40:31.220Z,4.80
2018-09-19T12:41:31.164Z,9.30
2018-09-19T12:42:31.150Z,10.60
2018-09-19T12:43:31.138Z,10.00
2018-09-19T12:44:31.124Z,8.50
2018-09-19T12:45:31.113Z,7.20
2018-09-19T12:46:31.098Z,6.70
2018-09-19T12:47:31.086Z,8.30
2018-09-19T12:48:31.073Z,10.00
2018-09-19T12:49:31.062Z,7.90
2018-09-19T12:50:31.050Z,11.00
2018-09-19T12:51:31.037Z,11.10
2018-09-19T12:52:31.024Z,11.50
2018-09-19T12:53:31.012Z,12.30
2018-09-19T12:54:30.999Z,10.00
2018-09-19T12:55:30.988Z,8.10
2018-09-19T12:56:30.973Z,8.20
2018-09-19T12:57:30.958Z,8.40
2018-09-19T12:58:30.946Z,8.40
2018-09-19T12:59:30.935Z,9.30
2018-09-19T13:00:30.920Z,7.40